Flugplatz Grefrath-Niershorst

Für EDLF sind keine METAR/TAF Berichte vorhanden.
Es werden die Flugwettermeldungen vom Flugplatz Mönchengladbach in 15 km Entfernung angezeigt.

Bericht für EDLN

vom 14.12. um 00:50 UTC

Wind 9 kt aus 200°

Sichtweite 10 km oder mehr

gering bewölkt in 7200 ft

aufgelockert bewölkt in 14000 ft

Temperatur 6.0°C

Taupunkt 3.0°C

Luftfeuchtigkeit 81%

Luftdruck 984 hPa

EDLN 140050Z AUTO 20009KT 180V240 9999 // FEW072/// SCT140/// 06/03 Q0984

Prognose für EDLN

vom 13.12. um 00:00 UTC

Am 13.12. zwischen 00:00 UTC und 00:00 UTC

Wind 10 kt aus 280°

Sichtweite 8000 m

aufgebrochene Bewölkung in 700 ft


Am 13.12. zwischen 00:00 UTC und 00:00 UTC zeitweise

Sichtweite 3500 m

schwacher Regen

schwacher Sprühregen

feuchter Dunst

aufgebrochene Bewölkung in 400 ft


Am 13.12. zwischen 00:00 und 00:00 UTC übergehend zu

Wind 10 kt aus 280°

Sichtweite 8000 m

aufgelockert bewölkt in 1500 ft

aufgebrochene Bewölkung in 2000 ft


Am 13.12. zwischen 00:00 und 00:00 UTC übergehend zu

Wind 9 kt aus 200°

Sichtweite 8000 m

aufgelockert bewölkt in 1500 ft

aufgebrochene Bewölkung in 2000 ft

TAF EDLN 131700Z 1318/1403 28010KT 8000 BKN007 TEMPO 1318/1320 3500 -RADZ BR BKN004 BECMG 1319/1322 SCT015 BKN020 BECMG 1322/1401 20009KT
Impressum